Time;durP1;ratioP1;P1;durP2;ratioP2;P2;SDS_P1;SDS_P2;PMS_P1;PMS_P2;Temp;Humidity;BMP_temperature;BMP_pressure;BME280_temperature;BME280_humidity;BME280_pressure;Samples;Min_cycle;Max_cycle;Signal;HPM_P1;HPM_P2
2023/03/13 00:00:14;;;;;;;;;;;;;;;2.71;56.42;96219.16;109138;1273;22481;-83
2023/03/13 00:03:03;;;;;;;;;;;;;;;2.71;56.83;96226.33;109073;1274;22625;-82
2023/03/13 00:05:35;;;;;;;;;;;;;;;2.72;56.99;96230.48;109085;1268;22518;-83
2023/03/13 00:08:04;;;;;;;;;;;;;;;2.73;57.23;96221.39;109077;1273;25384;-83
2023/03/13 00:10:36;;;;;;;;;;;;;;;2.74;57.42;96218.30;109098;1266;22619;-84
2023/03/13 00:13:07;;;;;;;;;;;;;;;2.73;57.58;96216.05;109082;1273;22485;-83
2023/03/13 00:15:37;;;;;;;;;;;;;;;2.71;57.77;96221.83;109083;1274;22526;-82
2023/03/13 00:18:06;;;;;;;;;;;;;;;2.70;58.06;96212.14;109075;1266;22485;-82
2023/03/13 00:20:36;;;;;;;;;;;;;;;2.69;58.30;96210.34;109089;1273;22524;-83
2023/03/13 00:23:08;;;;;;;;;;;;;;;2.69;58.67;96221.54;109074;1273;22549;-83
2023/03/13 00:25:38;;;;;;;;;;;;;;;2.71;58.87;96219.05;109101;1273;24196;-82
2023/03/13 00:28:07;;;;;;;;;;;;;;;2.73;59.23;96220.29;109089;1273;22699;-83
2023/03/13 00:30:37;;;;;;;;;;;;;;;2.78;59.65;96213.55;109106;1273;22485;-83
2023/03/13 00:33:06;;;;;;;;;;;;;;;2.83;60.42;96221.65;109126;1273;22496;-82
2023/03/13 00:35:35;;;;;;;;;;;;;;;2.81;61.49;96217.00;109039;1265;37993;-82
2023/03/13 00:38:05;;;;;;;;;;;;;;;2.76;62.38;96210.43;109087;1273;22595;-83
2023/03/13 00:40:34;;;;;;;;;;;;;;;2.71;63.50;96216.28;109103;1273;22485;-82
2023/03/13 00:43:04;;;;;;;;;;;;;;;2.68;63.95;96215.55;109093;1266;22481;-82
2023/03/13 00:45:33;;;;;;;;;;;;;;;2.66;64.37;96215.76;109020;1272;52826;-82
2023/03/13 00:48:02;;;;;;;;;;;;;;;2.63;65.19;96212.16;109094;1273;22819;-82
2023/03/13 00:50:32;;;;;;;;;;;;;;;2.62;65.63;96213.15;109130;1267;22548;-83
2023/03/13 00:53:01;;;;;;;;;;;;;;;2.64;66.21;96205.73;109090;1273;23106;-82
2023/03/13 00:55:31;;;;;;;;;;;;;;;2.63;66.53;96193.59;109066;1267;39268;-82
2023/03/13 00:58:00;;;;;;;;;;;;;;;2.62;67.50;96193.73;109083;1273;22626;-82
2023/03/13 01:00:30;;;;;;;;;;;;;;;2.61;67.94;96192.23;109085;1269;22433;-82
2023/03/13 01:02:59;;;;;;;;;;;;;;;2.63;68.15;96195.46;109089;1273;25206;-81
2023/03/13 01:05:29;;;;;;;;;;;;;;;2.63;68.59;96187.10;108989;1267;65264;-82
2023/03/13 01:07:58;;;;;;;;;;;;;;;2.62;68.69;96181.90;109075;1273;25400;-82
2023/03/13 01:10:27;;;;;;;;;;;;;;;2.63;68.91;96179.62;109078;1266;25415;-81
2023/03/13 01:12:57;;;;;;;;;;;;;;;2.64;69.08;96188.20;109124;1273;22513;-83
2023/03/13 01:15:26;;;;;;;;;;;;;;;2.63;69.07;96186.27;109052;1273;32921;-82
2023/03/13 01:17:56;;;;;;;;;;;;;;;2.63;69.51;96169.88;109091;1273;22555;-82
2023/03/13 01:20:25;;;;;;;;;;;;;;;2.61;69.48;96188.73;109092;1273;22553;-82
2023/03/13 01:22:56;;;;;;;;;;;;;;;2.59;69.46;96186.35;109058;1273;22536;-82
2023/03/13 01:25:25;;;;;;;;;;;;;;;2.58;69.74;96189.27;109094;1267;30177;-82
2023/03/13 01:27:55;;;;;;;;;;;;;;;2.58;70.03;96194.34;109093;1273;23608;-82
2023/03/13 01:30:24;;;;;;;;;;;;;;;2.57;70.01;96196.16;109060;1274;22481;-82
2023/03/13 01:32:53;;;;;;;;;;;;;;;2.55;70.25;96186.88;109114;1273;24215;-82
2023/03/13 01:35:23;;;;;;;;;;;;;;;2.51;70.77;96178.63;109031;1273;32221;-82
2023/03/13 01:37:52;;;;;;;;;;;;;;;2.52;71.08;96187.05;109095;1273;22485;-82
2023/03/13 01:40:22;;;;;;;;;;;;;;;2.53;71.15;96186.67;109083;1273;23937;-81
2023/03/13 01:42:53;;;;;;;;;;;;;;;2.53;71.20;96192.15;109077;1267;22566;-82
2023/03/13 01:45:40;;;;;;;;;;;;;;;2.51;71.37;96193.11;109075;1267;34267;-82
2023/03/13 01:48:09;;;;;;;;;;;;;;;2.50;71.46;96194.63;109080;1270;22506;-82
2023/03/13 01:50:39;;;;;;;;;;;;;;;2.52;71.22;96199.25;109107;1266;22575;-82
2023/03/13 01:53:09;;;;;;;;;;;;;;;2.53;71.27;96195.23;109089;1268;22494;-82
2023/03/13 01:55:38;;;;;;;;;;;;;;;2.53;71.19;96199.02;109042;1269;52328;-82
2023/03/13 01:58:08;;;;;;;;;;;;;;;2.53;71.16;96203.73;109082;1268;22444;-82
2023/03/13 02:00:38;;;;;;;;;;;;;;;2.53;71.03;96200.31;109123;1266;22524;-82
2023/03/13 02:03:10;;;;;;;;;;;;;;;2.53;71.38;96195.32;109093;1273;22550;-82
2023/03/13 02:05:42;;;;;;;;;;;;;;;2.55;71.49;96198.29;109078;1273;37046;-82
2023/03/13 02:08:14;;;;;;;;;;;;;;;2.55;71.68;96200.85;109125;1273;22486;-82
2023/03/13 02:10:46;;;;;;;;;;;;;;;2.55;71.69;96207.39;109116;1266;22498;-82
2023/03/13 02:13:17;;;;;;;;;;;;;;;2.55;71.73;96200.42;109111;1269;22556;-82
2023/03/13 02:15:47;;;;;;;;;;;;;;;2.56;71.78;96207.40;109032;1273;41146;-82
2023/03/13 02:18:17;;;;;;;;;;;;;;;2.57;72.21;96215.21;109092;1268;22513;-82
2023/03/13 02:20:47;;;;;;;;;;;;;;;2.60;72.49;96224.31;109090;1273;23138;-81
2023/03/13 02:23:20;;;;;;;;;;;;;;;2.63;72.60;96218.66;109131;1270;22544;-82
2023/03/13 02:25:50;;;;;;;;;;;;;;;2.64;72.36;96222.43;109094;1269;34682;-82
2023/03/13 02:28:21;;;;;;;;;;;;;;;2.66;72.47;96228.99;109067;1273;22571;-82
2023/03/13 02:30:53;;;;;;;;;;;;;;;2.67;72.61;96223.21;109077;1269;22546;-82
2023/03/13 02:33:26;;;;;;;;;;;;;;;2.67;72.68;96233.96;109105;1273;22493;-83
2023/03/13 02:35:55;;;;;;;;;;;;;;;2.72;72.87;96230.85;109013;1269;31225;-82
2023/03/13 02:38:27;;;;;;;;;;;;;;;2.74;72.67;96230.92;109087;1267;22568;-82
2023/03/13 02:40:57;;;;;;;;;;;;;;;2.75;72.72;96226.86;109137;1274;25265;-82
2023/03/13 02:43:30;;;;;;;;;;;;;;;2.75;72.99;96231.20;109037;1273;22539;-82
2023/03/13 02:46:03;;;;;;;;;;;;;;;2.76;72.99;96224.71;109097;1273;56640;-81
2023/03/13 02:48:34;;;;;;;;;;;;;;;2.77;73.20;96228.50;109109;1273;25389;-81
2023/03/13 02:51:06;;;;;;;;;;;;;;;2.77;73.15;96230.08;109076;1273;22499;-81
2023/03/13 02:53:35;;;;;;;;;;;;;;;2.80;73.35;96234.14;109100;1273;22435;-82
2023/03/13 02:56:06;;;;;;;;;;;;;;;2.82;73.34;96237.70;109123;1273;22563;-82
2023/03/13 02:58:42;;;;;;;;;;;;;;;2.82;73.29;96245.35;109097;1266;25220;-82
2023/03/13 03:01:12;;;;;;;;;;;;;;;2.82;73.26;96248.16;109098;1273;22597;-82
2023/03/13 03:03:41;;;;;;;;;;;;;;;2.82;73.30;96249.86;109062;1270;53841;-82
2023/03/13 03:06:11;;;;;;;;;;;;;;;2.83;73.27;96261.77;109091;1273;22504;-82
2023/03/13 03:08:42;;;;;;;;;;;;;;;2.84;73.29;96264.82;108912;1274;266259;-81
2023/03/13 03:11:12;;;;;;;;;;;;;;;2.87;73.47;96264.48;109087;1273;22488;-82
2023/03/13 03:13:42;;;;;;;;;;;;;;;2.87;73.44;96276.75;108995;1269;60500;-82
2023/03/13 03:16:14;;;;;;;;;;;;;;;2.90;73.39;96271.55;109034;1273;22615;-82
2023/03/13 03:18:43;;;;;;;;;;;;;;;2.92;73.43;96271.63;109055;1273;22485;-82
2023/03/13 03:21:13;;;;;;;;;;;;;;;2.94;73.53;96269.41;109124;1263;22709;-83
2023/03/13 03:23:42;;;;;;;;;;;;;;;2.98;73.58;96268.27;109067;1273;40651;-81
2023/03/13 03:26:12;;;;;;;;;;;;;;;3.01;73.70;96267.58;109077;1273;22508;-82
2023/03/13 03:28:42;;;;;;;;;;;;;;;3.02;73.88;96264.41;109100;1270;22517;-82
2023/03/13 03:31:12;;;;;;;;;;;;;;;3.05;74.11;96268.05;109113;1268;22943;-82
2023/03/13 03:33:42;;;;;;;;;;;;;;;3.05;74.30;96270.89;109039;1265;52755;-82
2023/03/13 03:36:13;;;;;;;;;;;;;;;3.06;74.43;96264.09;109072;1273;22565;-82
2023/03/13 03:38:43;;;;;;;;;;;;;;;3.06;74.58;96263.57;109092;1273;22480;-82
2023/03/13 03:41:14;;;;;;;;;;;;;;;3.07;74.68;96259.28;109102;1273;22750;-83
2023/03/13 03:43:43;;;;;;;;;;;;;;;3.07;75.12;96270.11;109077;1273;51755;-83
2023/03/13 03:46:13;;;;;;;;;;;;;;;3.08;75.33;96266.38;109109;1269;22453;-83
2023/03/13 03:48:42;;;;;;;;;;;;;;;3.10;75.33;96265.51;109085;1273;22570;-82
2023/03/13 03:51:12;;;;;;;;;;;;;;;3.11;75.53;96269.35;109098;1269;25333;-82
2023/03/13 03:53:41;;;;;;;;;;;;;;;3.12;75.72;96272.38;109081;1269;38865;-81
2023/03/13 03:56:10;;;;;;;;;;;;;;;3.14;75.79;96263.55;109057;1273;22571;-81
2023/03/13 03:58:40;;;;;;;;;;;;;;;3.15;75.81;96260.78;109074;1273;23796;-82
2023/03/13 04:01:09;;;;;;;;;;;;;;;3.16;76.00;96263.15;109098;1273;22640;-81
2023/03/13 04:03:39;;;;;;;;;;;;;;;3.16;76.36;96260.27;109098;1266;22625;-82
2023/03/13 04:06:08;;;;;;;;;;;;;;;3.18;76.59;96270.73;109104;1273;24192;-83
2023/03/13 04:08:38;;;;;;;;;;;;;;;3.20;76.54;96261.48;109129;1262;22500;-82
2023/03/13 04:11:07;;;;;;;;;;;;;;;3.21;76.73;96261.02;109078;1269;22508;-83
2023/03/13 04:13:37;;;;;;;;;;;;;;;3.23;76.96;96266.65;109106;1270;22487;-82
2023/03/13 04:16:09;;;;;;;;;;;;;;;3.24;76.94;96273.65;109092;1273;22440;-82
2023/03/13 04:18:38;;;;;;;;;;;;;;;3.26;77.14;96273.58;109099;1273;22514;-82
2023/03/13 04:21:08;;;;;;;;;;;;;;;3.25;77.08;96263.55;109097;1272;25157;-81
2023/03/13 04:23:37;;;;;;;;;;;;;;;3.23;77.31;96261.58;109105;1269;22699;-81
2023/03/13 04:26:07;;;;;;;;;;;;;;;3.24;77.63;96259.03;109084;1270;22505;-82
2023/03/13 04:28:36;;;;;;;;;;;;;;;3.22;77.84;96256.52;109117;1272;22864;-82
2023/03/13 04:31:05;;;;;;;;;;;;;;;3.21;77.94;96255.52;109115;1273;22448;-82
2023/03/13 04:33:36;;;;;;;;;;;;;;;3.18;78.17;96253.95;109102;1273;22506;-82
2023/03/13 04:36:07;;;;;;;;;;;;;;;3.16;78.34;96247.90;109066;1267;22544;-81
2023/03/13 04:38:41;;;;;;;;;;;;;;;3.15;78.75;96253.08;109087;1269;23857;-81
2023/03/13 04:41:11;;;;;;;;;;;;;;;3.15;78.89;96260.58;109118;1269;22585;-81
2023/03/13 04:43:40;;;;;;;;;;;;;;;3.13;79.19;96264.10;109053;1273;41708;-81
2023/03/13 04:46:10;;;;;;;;;;;;;;;3.14;79.55;96261.02;109075;1273;22638;-82
2023/03/13 04:48:41;;;;;;;;;;;;;;;3.15;79.78;96275.92;109140;1269;24240;-81
2023/03/13 04:51:11;;;;;;;;;;;;;;;3.20;80.07;96268.19;109100;1273;22965;-82
2023/03/13 04:53:40;;;;;;;;;;;;;;;3.23;80.25;96267.91;109105;1273;28017;-81
2023/03/13 04:56:11;;;;;;;;;;;;;;;3.26;80.57;96270.13;109099;1273;22492;-81
2023/03/13 04:58:40;;;;;;;;;;;;;;;3.29;80.87;96269.86;109096;1269;22575;-81
2023/03/13 05:01:10;;;;;;;;;;;;;;;3.31;80.77;96266.63;109099;1267;22497;-81
2023/03/13 05:03:40;;;;;;;;;;;;;;;3.30;80.73;96266.65;109059;1273;22527;-82
2023/03/13 05:06:09;;;;;;;;;;;;;;;3.32;80.83;96265.68;109097;1273;22490;-81
2023/03/13 05:08:39;;;;;;;;;;;;;;;3.33;81.03;96263.87;109063;1274;25917;-82
2023/03/13 05:11:09;;;;;;;;;;;;;;;3.36;81.40;96255.25;109113;1267;23791;-81
2023/03/13 05:13:38;;;;;;;;;;;;;;;3.39;81.67;96266.73;109075;1273;22482;-81
2023/03/13 05:16:08;;;;;;;;;;;;;;;3.43;81.68;96269.46;109070;1266;22555;-82
2023/03/13 05:18:38;;;;;;;;;;;;;;;3.47;81.88;96268.89;109106;1273;25504;-83
2023/03/13 05:21:07;;;;;;;;;;;;;;;3.52;81.87;96258.95;109115;1269;24228;-82
2023/03/13 05:23:37;;;;;;;;;;;;;;;3.56;82.23;96265.88;109116;1270;22575;-83
2023/03/13 05:26:06;;;;;;;;;;;;;;;3.60;82.03;96269.22;109125;1252;22628;-83
2023/03/13 05:28:36;;;;;;;;;;;;;;;3.64;82.09;96262.70;109093;1269;22537;-82
2023/03/13 05:31:05;;;;;;;;;;;;;;;3.67;82.07;96261.15;109088;1273;24426;-83
2023/03/13 05:33:35;;;;;;;;;;;;;;;3.68;82.12;96256.39;109091;1273;22528;-82
2023/03/13 05:36:04;;;;;;;;;;;;;;;3.71;82.07;96261.23;109068;1272;64923;-83
2023/03/13 05:38:34;;;;;;;;;;;;;;;3.77;82.08;96263.04;109137;1273;23219;-82
2023/03/13 05:41:03;;;;;;;;;;;;;;;3.83;82.17;96256.79;109092;1273;23013;-82
2023/03/13 05:43:35;;;;;;;;;;;;;;;3.88;82.02;96251.75;109078;1273;25240;-81
2023/03/13 05:46:04;;;;;;;;;;;;;;;3.94;82.03;96257.33;109036;1270;102273;-82
2023/03/13 05:48:34;;;;;;;;;;;;;;;4.02;81.77;96254.84;109108;1273;25248;-82
2023/03/13 05:51:03;;;;;;;;;;;;;;;4.11;81.73;96264.56;109101;1259;22575;-82
2023/03/13 05:53:33;;;;;;;;;;;;;;;4.15;81.53;96254.95;109118;1273;23872;-82
2023/03/13 05:56:02;;;;;;;;;;;;;;;4.19;81.62;96253.36;109063;1273;69486;-82
2023/03/13 05:58:32;;;;;;;;;;;;;;;4.25;81.54;96241.63;109117;1266;22550;-82
2023/03/13 06:01:05;;;;;;;;;;;;;;;4.28;81.36;96250.89;109131;1273;25309;-82
2023/03/13 06:03:35;;;;;;;;;;;;;;;4.27;81.30;96251.20;109105;1266;22526;-82
2023/03/13 06:06:04;;;;;;;;;;;;;;;4.24;81.33;96255.73;108990;1273;58360;-82
2023/03/13 06:08:34;;;;;;;;;;;;;;;4.25;81.53;96254.80;109099;1274;22628;-83
2023/03/13 06:11:04;;;;;;;;;;;;;;;4.29;81.54;96257.77;109098;1274;24989;-83
2023/03/13 06:13:34;;;;;;;;;;;;;;;4.31;81.44;96257.95;109111;1272;22489;-81
2023/03/13 06:16:03;;;;;;;;;;;;;;;4.33;81.66;96256.65;108977;1254;120564;-82
2023/03/13 06:18:33;;;;;;;;;;;;;;;4.38;82.03;96258.14;109105;1267;22797;-82
2023/03/13 06:21:03;;;;;;;;;;;;;;;4.44;81.92;96259.71;109084;1269;22512;-82
2023/03/13 06:23:32;;;;;;;;;;;;;;;4.54;81.80;96258.86;109116;1273;22571;-82
2023/03/13 06:26:02;;;;;;;;;;;;;;;4.63;81.51;96264.30;109069;1269;35806;-83
2023/03/13 06:28:31;;;;;;;;;;;;;;;4.70;81.38;96270.26;109086;1270;22842;-82
2023/03/13 06:31:03;;;;;;;;;;;;;;;4.77;81.07;96267.42;109083;1266;22521;-83
2023/03/13 06:33:33;;;;;;;;;;;;;;;4.83;81.03;96260.50;109071;1269;22635;-83
2023/03/13 06:36:03;;;;;;;;;;;;;;;4.87;80.71;96269.92;109055;1266;64774;-84
2023/03/13 06:38:32;;;;;;;;;;;;;;;4.87;80.56;96249.49;109104;1274;22538;-82
2023/03/13 06:41:01;;;;;;;;;;;;;;;4.88;80.79;96251.34;109144;1269;22575;-81
2023/03/13 06:43:31;;;;;;;;;;;;;;;4.93;80.69;96239.55;109064;1273;22532;-83
2023/03/13 06:46:05;;;;;;;;;;;;;;;5.06;80.20;96262.66;109036;1273;57128;-83
2023/03/13 06:48:34;;;;;;;;;;;;;;;5.19;79.99;96243.59;109089;1274;22488;-82
2023/03/13 06:51:04;;;;;;;;;;;;;;;5.29;79.52;96254.48;109106;1273;25937;-82
2023/03/13 06:53:34;;;;;;;;;;;;;;;5.36;79.48;96250.16;109080;1269;25030;-82
2023/03/13 06:56:06;;;;;;;;;;;;;;;5.45;78.95;96240.64;109092;1273;66200;-83
2023/03/13 06:58:36;;;;;;;;;;;;;;;5.54;78.64;96247.08;109090;1274;24158;-82
2023/03/13 07:01:08;;;;;;;;;;;;;;;5.73;78.60;96247.38;109104;1273;22819;-82
2023/03/13 07:03:38;;;;;;;;;;;;;;;5.96;77.94;96234.50;109119;1269;22520;-82
2023/03/13 07:06:08;;;;;;;;;;;;;;;6.20;77.40;96244.16;109102;1269;22444;-82
2023/03/13 07:08:38;;;;;;;;;;;;;;;6.32;76.88;96236.36;109081;1273;22527;-83
2023/03/13 07:11:09;;;;;;;;;;;;;;;6.41;75.96;96219.73;109081;1274;22492;-82
2023/03/13 07:13:39;;;;;;;;;;;;;;;6.58;75.60;96205.65;109133;1274;24193;-83
2023/03/13 07:16:09;;;;;;;;;;;;;;;6.95;74.98;96210.27;109114;1274;22806;-82
2023/03/13 07:18:40;;;;;;;;;;;;;;;7.33;73.78;96201.12;109091;1273;22498;-82
2023/03/13 07:21:10;;;;;;;;;;;;;;;7.37;72.40;96193.36;109095;1274;23314;-83
2023/03/13 07:23:40;;;;;;;;;;;;;;;7.20;72.14;96191.97;109081;1273;24078;-82
2023/03/13 07:26:11;;;;;;;;;;;;;;;7.22;72.78;96173.20;109084;1271;22535;-82
2023/03/13 07:28:41;;;;;;;;;;;;;;;7.20;72.47;96180.58;109131;1272;22612;-83
2023/03/13 07:31:11;;;;;;;;;;;;;;;7.18;72.67;96175.84;109116;1266;22436;-81
2023/03/13 07:33:41;;;;;;;;;;;;;;;7.41;72.18;96173.83;109153;1274;22494;-82
2023/03/13 07:36:12;;;;;;;;;;;;;;;7.59;72.21;96182.80;109092;1274;24177;-82
2023/03/13 07:38:43;;;;;;;;;;;;;;;8.07;71.58;96185.98;109085;1274;24952;-82
2023/03/13 07:41:13;;;;;;;;;;;;;;;8.79;69.33;96188.54;109096;1274;22534;-82
2023/03/13 07:43:42;;;;;;;;;;;;;;;9.24;68.46;96193.53;109113;1271;22528;-82
2023/03/13 07:46:13;;;;;;;;;;;;;;;9.58;66.40;96159.55;109135;1273;22602;-82
2023/03/13 07:48:43;;;;;;;;;;;;;;;9.58;64.71;96171.77;109094;1269;22908;-81
2023/03/13 07:51:13;;;;;;;;;;;;;;;9.92;64.79;96165.70;109106;1274;22492;-82
2023/03/13 07:53:43;;;;;;;;;;;;;;;10.76;62.56;96161.00;109067;1272;24387;-81
2023/03/13 07:56:13;;;;;;;;;;;;;;;10.97;60.25;96161.02;109136;1273;22540;-81
2023/03/13 07:58:43;;;;;;;;;;;;;;;11.59;60.33;96159.56;109109;1268;22541;-80
2023/03/13 08:01:16;;;;;;;;;;;;;;;11.84;58.23;96160.48;109129;1269;22481;-81
2023/03/13 08:03:48;;;;;;;;;;;;;;;11.81;57.41;96163.65;109000;1274;70045;-81
2023/03/13 08:06:18;;;;;;;;;;;;;;;11.69;56.81;96136.38;109140;1272;22517;-80
2023/03/13 08:08:50;;;;;;;;;;;;;;;11.49;57.07;96137.88;109102;1274;22667;-80
2023/03/13 08:11:20;;;;;;;;;;;;;;;11.29;57.13;96149.22;109135;1272;22514;-81
2023/03/13 08:13:52;;;;;;;;;;;;;;;11.24;57.48;96151.75;109032;1273;69580;-80
2023/03/13 08:16:22;;;;;;;;;;;;;;;11.56;57.06;96154.19;109092;1270;22480;-80
2023/03/13 08:18:53;;;;;;;;;;;;;;;11.78;56.12;96152.38;109130;1274;22492;-80
2023/03/13 08:21:24;;;;;;;;;;;;;;;11.84;55.61;96160.10;109085;1274;24219;-79
2023/03/13 08:23:54;;;;;;;;;;;;;;;11.96;55.47;96147.31;109082;1274;67221;-80
2023/03/13 08:26:25;;;;;;;;;;;;;;;12.37;54.84;96135.10;109116;1274;22493;-83
2023/03/13 08:28:58;;;;;;;;;;;;;;;12.58;54.17;96167.33;109117;1273;25026;-82
2023/03/13 08:31:29;;;;;;;;;;;;;;;13.04;52.82;96153.12;109076;1274;22441;-80
2023/03/13 08:33:58;;;;;;;;;;;;;;;13.23;51.81;96158.48;109058;1274;53357;-83
2023/03/13 08:36:28;;;;;;;;;;;;;;;13.40;52.20;96162.08;109077;1272;22515;-81
2023/03/13 08:39:00;;;;;;;;;;;;;;;13.46;51.13;96151.85;109076;1274;22502;-81
2023/03/13 08:41:31;;;;;;;;;;;;;;;13.51;52.02;96153.74;109095;1273;23171;-82
2023/03/13 08:44:00;;;;;;;;;;;;;;;13.67;50.63;96151.98;109040;1272;48838;-82
2023/03/13 08:46:31;;;;;;;;;;;;;;;13.80;50.85;96156.84;109109;1267;22617;-79
2023/03/13 08:49:01;;;;;;;;;;;;;;;13.93;50.28;96134.87;109141;1272;22442;-83
2023/03/13 08:51:31;;;;;;;;;;;;;;;13.81;50.35;96140.02;109108;1266;22556;-82
2023/03/13 08:54:00;;;;;;;;;;;;;;;13.53;50.12;96116.25;109058;1274;39695;-81
2023/03/13 08:56:31;;;;;;;;;;;;;;;13.17;51.27;96148.66;109092;1273;22928;-81
2023/03/13 08:59:02;;;;;;;;;;;;;;;13.20;50.95;96141.52;109124;1262;24219;-82
2023/03/13 09:01:32;;;;;;;;;;;;;;;12.88;51.37;96125.48;109128;1273;23790;-81
2023/03/13 09:04:03;;;;;;;;;;;;;;;12.65;52.39;96104.80;108997;1273;102043;-81
2023/03/13 09:06:32;;;;;;;;;;;;;;;12.33;52.59;96121.00;109141;1270;22503;-81
2023/03/13 09:09:03;;;;;;;;;;;;;;;12.04;53.13;96104.84;109117;1273;22516;-80
2023/03/13 09:11:32;;;;;;;;;;;;;;;11.30;54.33;96084.73;109133;1274;23223;-80
2023/03/13 09:14:02;;;;;;;;;;;;;;;10.81;56.29;96095.92;109101;1267;33415;-80
2023/03/13 09:16:32;;;;;;;;;;;;;;;10.69;57.27;96085.74;109132;1269;23151;-80
2023/03/13 09:19:01;;;;;;;;;;;;;;;10.52;57.82;96085.00;109086;1262;22488;-81
2023/03/13 09:21:32;;;;;;;;;;;;;;;10.44;58.02;96068.39;109087;1274;22498;-80
2023/03/13 09:24:02;;;;;;;;;;;;;;;10.32;58.72;96085.75;109098;1266;34366;-81
2023/03/13 09:26:31;;;;;;;;;;;;;;;10.33;59.05;96077.63;109110;1274;22496;-80
2023/03/13 09:29:01;;;;;;;;;;;;;;;10.38;59.59;96082.83;109118;1274;25374;-80
2023/03/13 09:31:32;;;;;;;;;;;;;;;10.44;59.81;96085.84;109107;1274;22496;-80
2023/03/13 09:34:01;;;;;;;;;;;;;;;10.60;59.62;96074.65;109060;1266;56704;-79
2023/03/13 09:36:31;;;;;;;;;;;;;;;10.61;59.37;96077.06;109151;1266;24211;-79
2023/03/13 09:39:01;;;;;;;;;;;;;;;10.67;59.18;96056.34;109122;1273;22623;-79
2023/03/13 09:41:34;;;;;;;;;;;;;;;10.62;59.12;96054.90;109086;1267;24360;-78
2023/03/13 09:44:06;;;;;;;;;;;;;;;10.52;58.89;96048.06;108988;1274;29627;-78
2023/03/13 09:46:39;;;;;;;;;;;;;;;10.46;58.88;96060.20;109053;1274;22432;-80
2023/03/13 09:49:13;;;;;;;;;;;;;;;10.48;58.61;96054.55;109123;1274;25229;-79
2023/03/13 09:51:44;;;;;;;;;;;;;;;10.53;58.72;96062.98;109205;1274;24210;-79
2023/03/13 09:54:20;;;;;;;;;;;;;;;10.63;58.32;96065.73;109075;1274;31430;-79
2023/03/13 09:56:53;;;;;;;;;;;;;;;10.59;58.27;96054.74;109084;1272;24214;-79
2023/03/13 09:59:28;;;;;;;;;;;;;;;10.54;57.53;96033.19;109072;1272;25492;-79
2023/03/13 10:02:00;;;;;;;;;;;;;;;10.53;57.61;96071.27;109155;1273;22520;-79
2023/03/13 10:04:32;;;;;;;;;;;;;;;10.69;57.19;96065.00;109034;1269;48893;-78
2023/03/13 10:07:04;;;;;;;;;;;;;;;10.73;56.53;96061.55;109106;1266;22471;-79
2023/03/13 10:09:35;;;;;;;;;;;;;;;10.79;56.62;96063.73;109110;1274;22511;-78
2023/03/13 10:12:13;;;;;;;;;;;;;;;11.05;56.50;96048.80;109086;1272;22538;-79
2023/03/13 10:14:47;;;;;;;;;;;;;;;11.16;55.19;96054.48;109058;1274;75537;-79
2023/03/13 10:17:21;;;;;;;;;;;;;;;11.19;55.67;96041.38;109105;1272;25422;-79
2023/03/13 10:19:55;;;;;;;;;;;;;;;11.35;55.48;96048.86;109100;1272;22511;-79
2023/03/13 10:22:28;;;;;;;;;;;;;;;11.56;55.09;96059.67;109101;1273;22492;-79
2023/03/13 10:25:00;;;;;;;;;;;;;;;11.63;54.49;96041.82;109099;1274;30289;-79
2023/03/13 10:27:29;;;;;;;;;;;;;;;11.68;55.05;96045.80;109101;1272;23641;-79
2023/03/13 10:29:59;;;;;;;;;;;;;;;11.77;53.81;96032.80;109070;1274;25195;-79
2023/03/13 10:32:28;;;;;;;;;;;;;;;11.70;53.52;96031.89;109067;1266;22507;-79
2023/03/13 10:34:59;;;;;;;;;;;;;;;11.76;54.12;96041.36;109036;1274;31337;-78
2023/03/13 10:37:29;;;;;;;;;;;;;;;11.84;53.39;96027.09;109104;1274;22486;-77
2023/03/13 10:40:12;;;;;;;;;;;;;;;11.86;53.25;96022.00;109125;1273;22533;-78
2023/03/13 10:42:43;;;;;;;;;;;;;;;11.93;53.93;96036.77;109110;1266;22965;-78
2023/03/13 10:45:17;;;;;;;;;;;;;;;12.12;53.25;96038.05;109063;1273;22488;-79
2023/03/13 10:47:53;;;;;;;;;;;;;;;12.12;53.58;96036.40;109095;1274;22500;-80
2023/03/13 10:50:24;;;;;;;;;;;;;;;12.11;52.65;96037.35;109132;1272;22489;-78
2023/03/13 10:52:55;;;;;;;;;;;;;;;11.93;52.05;96030.55;109042;1274;23897;-79
2023/03/13 10:55:25;;;;;;;;;;;;;;;11.73;52.97;96029.73;109048;1274;43508;-79
2023/03/13 10:57:58;;;;;;;;;;;;;;;11.70;53.21;96015.91;109048;1274;24230;-79
2023/03/13 11:00:34;;;;;;;;;;;;;;;11.67;53.06;96014.69;109078;1274;24179;-79
2023/03/13 11:03:05;;;;;;;;;;;;;;;11.57;52.56;96005.05;109070;1274;22442;-79
2023/03/13 11:05:37;;;;;;;;;;;;;;;11.54;52.53;96007.23;109056;1274;78243;-80
2023/03/13 11:08:20;;;;;;;;;;;;;;;11.61;52.77;96004.80;109078;1274;22450;-80
2023/03/13 11:10:57;;;;;;;;;;;;;;;11.88;53.05;95998.35;109080;1274;22538;-80
2023/03/13 11:13:39;;;;;;;;;;;;;;;12.24;52.84;95992.67;109048;1274;22627;-80
2023/03/13 11:16:17;;;;;;;;;;;;;;;12.43;51.83;95990.88;109048;1272;35536;-80
2023/03/13 11:18:54;;;;;;;;;;;;;;;12.41;50.98;95981.52;109098;1274;22568;-79
2023/03/13 11:21:33;;;;;;;;;;;;;;;12.17;49.97;95986.73;109090;1274;25493;-79
2023/03/13 11:24:08;;;;;;;;;;;;;;;12.08;50.93;95996.72;109101;1273;53743;-80
2023/03/13 11:26:39;;;;;;;;;;;;;;;12.09;51.05;95989.70;109038;1274;22629;-80
2023/03/13 11:29:11;;;;;;;;;;;;;;;11.96;50.93;95995.89;109067;1274;23415;-80
2023/03/13 11:31:43;;;;;;;;;;;;;;;11.79;50.43;95990.27;109118;1274;22539;-80
2023/03/13 11:34:16;;;;;;;;;;;;;;;11.72;50.43;95976.46;109096;1270;30433;-80
2023/03/13 11:36:49;;;;;;;;;;;;;;;11.90;50.91;95991.84;109077;1274;22458;-81
2023/03/13 11:39:31;;;;;;;;;;;;;;;11.94;50.17;95976.65;109097;1274;22454;-81
2023/03/13 11:42:08;;;;;;;;;;;;;;;11.92;50.35;95972.23;109103;1274;23178;-79
2023/03/13 11:44:44;;;;;;;;;;;;;;;11.76;49.28;95947.80;109016;1275;50488;-80
2023/03/13 11:47:23;;;;;;;;;;;;;;;11.64;49.19;95950.77;109083;1268;22507;-82
2023/03/13 11:49:57;;;;;;;;;;;;;;;11.58;49.42;95964.61;109095;1266;22441;-81
2023/03/13 11:52:36;;;;;;;;;;;;;;;11.53;49.81;95967.89;109086;1272;22918;-80
2023/03/13 11:55:14;;;;;;;;;;;;;;;11.58;49.53;95953.61;109007;1274;127378;-80
2023/03/13 11:57:49;;;;;;;;;;;;;;;11.54;49.07;95951.10;109049;1274;22453;-80
2023/03/13 12:00:23;;;;;;;;;;;;;;;11.58;50.08;95958.92;109100;1274;22526;-81
2023/03/13 12:02:56;;;;;;;;;;;;;;;11.68;49.71;95936.29;109182;1274;24215;-81
2023/03/13 12:05:28;;;;;;;;;;;;;;;11.61;48.45;95936.45;109056;1271;33327;-80
2023/03/13 12:08:02;;;;;;;;;;;;;;;11.48;48.54;95942.59;109122;1274;25252;-80
2023/03/13 12:10:34;;;;;;;;;;;;;;;11.34;48.83;95933.89;109068;1273;23856;-81
2023/03/13 12:13:07;;;;;;;;;;;;;;;11.30;49.41;95935.08;109125;1274;22719;-80
2023/03/13 12:15:39;;;;;;;;;;;;;;;11.34;48.86;95927.77;109052;1273;23537;-80
2023/03/13 12:18:17;;;;;;;;;;;;;;;11.44;49.39;95925.16;109130;1272;25426;-80
2023/03/13 12:20:54;;;;;;;;;;;;;;;11.54;48.56;95922.75;109098;1274;22504;-80
2023/03/13 12:23:28;;;;;;;;;;;;;;;11.62;47.76;95906.75;109114;1274;22523;-81
2023/03/13 12:26:00;;;;;;;;;;;;;;;11.65;48.17;95917.77;109066;1274;33797;-80
2023/03/13 12:28:35;;;;;;;;;;;;;;;11.65;48.29;95916.11;109067;1274;22505;-80
2023/03/13 12:31:12;;;;;;;;;;;;;;;11.62;48.20;95908.28;109121;1267;22657;-80
2023/03/13 12:33:46;;;;;;;;;;;;;;;11.59;48.52;95909.11;109102;1270;22516;-79
2023/03/13 12:36:20;;;;;;;;;;;;;;;11.56;48.35;95901.41;109143;1272;23300;-79
2023/03/13 12:38:53;;;;;;;;;;;;;;;11.53;47.60;95892.45;109132;1274;22451;-79
2023/03/13 12:41:26;;;;;;;;;;;;;;;11.50;47.71;95892.63;109089;1274;22525;-80
2023/03/13 12:43:56;;;;;;;;;;;;;;;11.49;48.13;95904.19;109025;1275;34140;-80
2023/03/13 12:46:42;;;;;;;;;;;;;;;11.46;48.38;95899.58;109109;1274;24215;-80
2023/03/13 12:49:22;;;;;;;;;;;;;;;11.46;48.38;95890.66;109105;1273;22455;-79
2023/03/13 12:52:01;;;;;;;;;;;;;;;11.43;48.27;95891.85;109091;1274;22492;-80
2023/03/13 12:54:47;;;;;;;;;;;;;;;11.43;48.25;95884.89;109079;1274;39875;-79
2023/03/13 12:57:22;;;;;;;;;;;;;;;11.43;48.04;95883.20;109127;1272;22530;-79
2023/03/13 12:59:54;;;;;;;;;;;;;;;11.45;48.14;95874.77;109057;1273;22498;-80
2023/03/13 13:02:25;;;;;;;;;;;;;;;11.46;48.00;95869.05;109079;1269;22550;-79